Terminal Aerodrome Forecast
Issued by NWS Springfield, MO

Home | Current Version | Previous Version | Text Only | Print | Product List | Glossary On
Versions: 1 2 3 4 5 6 7 8 9 10 11 12 13 14 15 16 17 18 19 20 21 22 23 24 25 26 27 28 29 30
877
FTUS43 KSGF 061720
TAFSGF
TAF
KSGF 061720Z 0618/0718 34015KT P6SM BKN015 OVC025
     FM061900 34012KT P6SM SCT015 BKN250
     FM062300 34007KT P6SM SCT250
     FM070800 07006KT P6SM OVC100
     FM071500 08008KT P6SM OVC050=

USA.gov is the U.S. government's official web portal to all federal, state and local government web resources and services.